Time;durP1;ratioP1;P1;durP2;ratioP2;P2;SDS_P1;SDS_P2;PMS_P1;PMS_P2;Temp;Humidity;BMP_temperature;BMP_pressure;BME280_temperature;BME280_humidity;BME280_pressure;Samples;Min_cycle;Max_cycle;Signal;HPM_P1;HPM_P2
2023/04/25 00:00:52;;;;;;;;;;;6.70;99.90;;;;;;5069909;28;19925;-69
2023/04/25 00:03:18;;;;;;;;;;;6.70;99.90;;;;;;5052501;28;19924;-69
2023/04/25 00:05:43;;;;;;;;;;;6.60;99.90;;;;;;5052043;28;19974;-69
2023/04/25 00:08:09;;;;;;;;;;;6.50;99.90;;;;;;5068543;28;19925;-69
2023/04/25 00:10:35;;;;;;;;;;;6.60;99.90;;;;;;5050556;28;19935;-69
2023/04/25 00:13:02;;;;;;;;;;;6.50;99.90;;;;;;5070552;28;19951;-70
2023/04/25 00:15:30;;;;;;;;;;;6.50;99.90;;;;;;5070473;28;19985;-69
2023/04/25 00:17:56;;;;;;;;;;;6.50;99.90;;;;;;5074919;28;20027;-69
2023/04/25 00:20:23;;;;;;;;;;;6.50;99.90;;;;;;5072142;28;19928;-69
2023/04/25 00:22:49;;;;;;;;;;;6.50;99.90;;;;;;5073197;28;19925;-69
2023/04/25 00:25:14;;;;;;;;;;;6.50;99.90;;;;;;5073834;28;19936;-69
2023/04/25 00:27:41;;;;;;;;;;;6.50;99.90;;;;;;5073759;28;19932;-69
2023/04/25 00:30:07;;;;;;;;;;;6.60;99.90;;;;;;5072383;28;20015;-69
2023/04/25 00:32:33;;;;;;;;;;;6.50;99.90;;;;;;5078079;28;20009;-69
2023/04/25 00:34:58;;;;;;;;;;;6.40;99.90;;;;;;5081272;28;19931;-69
2023/04/25 00:37:24;;;;;;;;;;;6.30;99.90;;;;;;5074931;28;19924;-73
2023/04/25 00:39:50;;;;;;;;;;;6.20;99.90;;;;;;5074598;28;19924;-70
2023/04/25 00:42:15;;;;;;;;;;;6.40;99.90;;;;;;5060769;28;20023;-70
2023/04/25 00:44:42;;;;;;;;;;;6.10;99.90;;;;;;5062398;28;19924;-69
2023/04/25 00:47:08;;;;;;;;;;;6.10;99.90;;;;;;5072902;28;20015;-70
2023/04/25 00:49:36;;;;;;;;;;;6.00;99.90;;;;;;5073910;28;19924;-70
2023/04/25 00:52:02;;;;;;;;;;;6.10;99.90;;;;;;5075442;28;19978;-71
2023/04/25 00:54:33;;;;;;;;;;;6.00;99.90;;;;;;5072919;28;19986;-70
2023/04/25 00:57:00;;;;;;;;;;;6.00;99.90;;;;;;5071678;28;19963;-69
2023/04/25 00:59:27;;;;;;;;;;;6.10;99.90;;;;;;5073024;28;20298;-70
2023/04/25 01:01:53;;;;;;;;;;;6.00;99.90;;;;;;5068978;28;20507;-70
2023/04/25 01:04:18;;;;;;;;;;;6.10;99.90;;;;;;5069388;28;19928;-70
2023/04/25 01:06:44;;;;;;;;;;;6.10;99.90;;;;;;5071637;28;19985;-69
2023/04/25 01:09:10;;;;;;;;;;;6.10;99.90;;;;;;5072411;28;19932;-69
2023/04/25 01:11:36;;;;;;;;;;;6.10;99.90;;;;;;5068395;28;19962;-69
2023/04/25 01:14:01;;;;;;;;;;;6.10;99.90;;;;;;5072588;28;19924;-70
2023/04/25 01:16:27;;;;;;;;;;;6.10;99.90;;;;;;5065132;28;20454;-69
2023/04/25 01:18:54;;;;;;;;;;;6.10;99.90;;;;;;5066185;28;20330;-69
2023/04/25 01:21:20;;;;;;;;;;;6.10;99.90;;;;;;5053578;28;19986;-69
2023/04/25 01:23:46;;;;;;;;;;;6.10;99.90;;;;;;5070877;28;19967;-70
2023/04/25 01:26:12;;;;;;;;;;;6.10;99.90;;;;;;5053962;28;19924;-70
2023/04/25 01:28:40;;;;;;;;;;;6.10;99.90;;;;;;5052198;28;19981;-70
2023/04/25 01:31:06;;;;;;;;;;;6.10;99.90;;;;;;5070709;28;19925;-69
2023/04/25 01:33:32;;;;;;;;;;;6.10;99.90;;;;;;5065948;28;20289;-70
2023/04/25 01:35:57;;;;;;;;;;;6.10;99.90;;;;;;5053244;28;20374;-70
2023/04/25 01:38:23;;;;;;;;;;;6.10;99.90;;;;;;5053950;28;20332;-70
2023/04/25 01:40:51;;;;;;;;;;;6.00;99.90;;;;;;5071448;28;20662;-69
2023/04/25 01:43:17;;;;;;;;;;;6.10;99.90;;;;;;5048413;28;19944;-69
2023/04/25 01:45:42;;;;;;;;;;;6.10;99.90;;;;;;5065605;28;19924;-69
2023/04/25 01:48:12;;;;;;;;;;;6.10;99.90;;;;;;5049649;28;20428;-70
2023/04/25 01:50:41;;;;;;;;;;;6.00;99.90;;;;;;5069112;28;19924;-69
2023/04/25 01:53:08;;;;;;;;;;;6.10;99.90;;;;;;5070169;28;19931;-69
2023/04/25 01:55:34;;;;;;;;;;;6.10;99.90;;;;;;5070069;28;19929;-69
2023/04/25 01:58:01;;;;;;;;;;;6.10;99.90;;;;;;5059813;28;19932;-69
2023/04/25 02:00:27;;;;;;;;;;;6.10;99.90;;;;;;5065112;28;20393;-69
2023/04/25 02:02:53;;;;;;;;;;;6.00;99.90;;;;;;5054513;28;19928;-69
2023/04/25 02:05:19;;;;;;;;;;;6.00;99.90;;;;;;5069924;28;19924;-69
2023/04/25 02:07:45;;;;;;;;;;;6.10;99.90;;;;;;5063607;28;20026;-69
2023/04/25 02:10:10;;;;;;;;;;;6.00;99.90;;;;;;5065775;28;20427;-70
2023/04/25 02:12:36;;;;;;;;;;;6.00;99.90;;;;;;5069600;28;19965;-68
2023/04/25 02:15:01;;;;;;;;;;;5.90;99.90;;;;;;5065044;28;19925;-68
2023/04/25 02:17:28;;;;;;;;;;;5.90;99.90;;;;;;5071623;28;20397;-69
2023/04/25 02:19:57;;;;;;;;;;;5.90;99.90;;;;;;5072410;28;20306;-70
2023/04/25 02:22:22;;;;;;;;;;;5.80;99.90;;;;;;5071259;28;20421;-69
2023/04/25 02:24:48;;;;;;;;;;;5.70;99.90;;;;;;5073521;28;19924;-70
2023/04/25 02:27:13;;;;;;;;;;;5.80;99.90;;;;;;5071807;28;19924;-69
2023/04/25 02:29:39;;;;;;;;;;;5.70;99.90;;;;;;5072659;28;19924;-69
2023/04/25 02:32:04;;;;;;;;;;;5.70;99.90;;;;;;5071282;28;19931;-69
2023/04/25 02:34:30;;;;;;;;;;;5.70;99.90;;;;;;5070927;28;19925;-69
2023/04/25 02:36:56;;;;;;;;;;;5.60;99.90;;;;;;5072698;28;20379;-70
2023/04/25 02:39:22;;;;;;;;;;;5.60;99.90;;;;;;5053649;28;19924;-69
2023/04/25 02:41:47;;;;;;;;;;;5.60;99.90;;;;;;5071053;28;19977;-67
2023/04/25 02:44:13;;;;;;;;;;;5.60;99.90;;;;;;5068123;28;20332;-70
2023/04/25 02:46:39;;;;;;;;;;;5.70;99.90;;;;;;5071159;28;20369;-70
2023/04/25 02:49:05;;;;;;;;;;;5.60;99.90;;;;;;5070748;28;19978;-68
2023/04/25 02:51:32;;;;;;;;;;;5.60;99.90;;;;;;5071074;28;20246;-69
2023/04/25 02:53:58;;;;;;;;;;;5.60;99.90;;;;;;5071472;28;20024;-69
2023/04/25 02:56:25;;;;;;;;;;;5.60;99.90;;;;;;5070151;28;19928;-69
2023/04/25 02:58:52;;;;;;;;;;;5.60;99.90;;;;;;5070161;28;19924;-69
2023/04/25 03:01:17;;;;;;;;;;;5.60;99.90;;;;;;5068414;28;19980;-69
2023/04/25 03:03:43;;;;;;;;;;;5.50;99.90;;;;;;5070853;28;20015;-69
2023/04/25 03:06:09;;;;;;;;;;;5.60;99.90;;;;;;5053357;28;19932;-69
2023/04/25 03:08:35;;;;;;;;;;;5.60;99.90;;;;;;5051457;28;20378;-69
2023/04/25 03:11:01;;;;;;;;;;;5.60;99.90;;;;;;5070931;28;19924;-69
2023/04/25 03:13:27;;;;;;;;;;;5.60;99.90;;;;;;5067633;28;19951;-68
2023/04/25 03:15:52;;;;;;;;;;;5.60;99.90;;;;;;5070132;28;20271;-70
2023/04/25 03:18:18;;;;;;;;;;;5.50;99.90;;;;;;5058111;28;19940;-70
2023/04/25 03:20:46;;;;;;;;;;;5.50;99.90;;;;;;5068977;28;20378;-69
2023/04/25 03:23:12;;;;;;;;;;;5.40;99.90;;;;;;5054574;28;19925;-69
2023/04/25 03:25:37;;;;;;;;;;;5.40;99.90;;;;;;5071160;28;20453;-69
2023/04/25 03:28:03;;;;;;;;;;;5.40;99.90;;;;;;5070283;28;19978;-70
2023/04/25 03:30:28;;;;;;;;;;;5.40;99.90;;;;;;5070822;28;20263;-70
2023/04/25 03:32:55;;;;;;;;;;;5.30;99.90;;;;;;5071889;28;19928;-69
2023/04/25 03:35:20;;;;;;;;;;;4.90;99.90;;;;;;5071492;28;19924;-69
2023/04/25 03:37:46;;;;;;;;;;;5.30;99.90;;;;;;5069750;28;19978;-70
2023/04/25 03:40:11;;;;;;;;;;;5.20;99.90;;;;;;5070822;28;19924;-69
2023/04/25 03:42:37;;;;;;;;;;;5.20;99.90;;;;;;5067044;28;19924;-70
2023/04/25 03:45:03;;;;;;;;;;;5.10;99.90;;;;;;5071347;28;19936;-70
2023/04/25 03:47:29;;;;;;;;;;;5.10;99.90;;;;;;5069960;28;19932;-69
2023/04/25 03:49:54;;;;;;;;;;;5.00;99.90;;;;;;5070448;28;19924;-69
2023/04/25 03:52:20;;;;;;;;;;;5.00;99.90;;;;;;5058477;28;19932;-69
2023/04/25 03:54:45;;;;;;;;;;;5.10;99.90;;;;;;5075168;28;19994;-70
2023/04/25 03:57:11;;;;;;;;;;;5.20;99.90;;;;;;5066603;28;20286;-69
2023/04/25 03:59:37;;;;;;;;;;;5.20;99.90;;;;;;5072696;28;19925;-70
2023/04/25 04:02:02;;;;;;;;;;;5.00;99.90;;;;;;5055210;28;20323;-69
2023/04/25 04:04:28;;;;;;;;;;;5.00;99.90;;;;;;5071970;28;20042;-70
2023/04/25 04:06:53;;;;;;;;;;;5.00;99.90;;;;;;5053998;28;20432;-69
2023/04/25 04:09:20;;;;;;;;;;;5.10;99.90;;;;;;5071491;28;19924;-69
2023/04/25 04:11:45;;;;;;;;;;;4.90;99.90;;;;;;5072097;28;19925;-69
2023/04/25 04:14:11;;;;;;;;;;;4.90;99.90;;;;;;5074670;28;19989;-70
2023/04/25 04:16:37;;;;;;;;;;;4.80;99.90;;;;;;5064381;28;19929;-69
2023/04/25 04:19:02;;;;;;;;;;;4.80;99.90;;;;;;5065052;28;19972;-69
2023/04/25 04:21:28;;;;;;;;;;;4.80;99.90;;;;;;5070709;28;19962;-69
2023/04/25 04:23:54;;;;;;;;;;;4.70;99.90;;;;;;5063703;28;19929;-69
2023/04/25 04:26:23;;;;;;;;;;;4.70;99.90;;;;;;5070967;28;19932;-69
2023/04/25 04:28:50;;;;;;;;;;;4.60;99.90;;;;;;5071332;28;19928;-69
2023/04/25 04:31:16;;;;;;;;;;;4.60;99.90;;;;;;5055237;28;19931;-70
2023/04/25 04:33:42;;;;;;;;;;;4.60;99.90;;;;;;5073295;28;19925;-69
2023/04/25 04:36:08;;;;;;;;;;;4.50;99.90;;;;;;5074204;28;19970;-69
2023/04/25 04:38:33;;;;;;;;;;;4.50;99.90;;;;;;5073236;28;19925;-69
2023/04/25 04:40:59;;;;;;;;;;;4.50;99.90;;;;;;5072873;28;19925;-70
2023/04/25 04:43:25;;;;;;;;;;;4.70;99.90;;;;;;5072062;28;20388;-70
2023/04/25 04:45:50;;;;;;;;;;;4.40;99.90;;;;;;5071639;28;19925;-69
2023/04/25 04:48:16;;;;;;;;;;;4.60;99.90;;;;;;5052169;28;19929;-69
2023/04/25 04:50:45;;;;;;;;;;;4.50;99.90;;;;;;5054785;28;19924;-69
2023/04/25 04:53:13;;;;;;;;;;;4.50;99.90;;;;;;5072691;28;19932;-69
2023/04/25 04:55:40;;;;;;;;;;;4.60;99.90;;;;;;5071480;28;19932;-70
2023/04/25 04:58:06;;;;;;;;;;;4.70;99.90;;;;;;5073148;28;19933;-69
2023/04/25 05:00:32;;;;;;;;;;;5.00;99.90;;;;;;5071375;28;19928;-70
2023/04/25 05:02:58;;;;;;;;;;;4.90;99.90;;;;;;5071537;28;19979;-68
2023/04/25 05:05:24;;;;;;;;;;;5.00;99.90;;;;;;5071259;28;20073;-69
2023/04/25 05:07:50;;;;;;;;;;;5.00;99.90;;;;;;5072358;28;19924;-68
2023/04/25 05:10:16;;;;;;;;;;;4.90;99.90;;;;;;5071898;28;19986;-67
2023/04/25 05:12:42;;;;;;;;;;;5.00;99.90;;;;;;5071715;28;19925;-68
2023/04/25 05:15:08;;;;;;;;;;;4.70;99.90;;;;;;5069156;28;19931;-69
2023/04/25 05:17:34;;;;;;;;;;;4.60;99.90;;;;;;5072553;28;19924;-69
2023/04/25 05:19:59;;;;;;;;;;;4.70;99.90;;;;;;5053970;28;19970;-68
2023/04/25 05:22:26;;;;;;;;;;;4.70;99.90;;;;;;5071149;28;19931;-68
2023/04/25 05:24:51;;;;;;;;;;;4.60;99.90;;;;;;5072666;28;20436;-68
2023/04/25 05:27:18;;;;;;;;;;;4.60;99.90;;;;;;5072202;28;19925;-67
2023/04/25 05:29:44;;;;;;;;;;;4.60;99.90;;;;;;5070789;28;20014;-67
2023/04/25 05:32:10;;;;;;;;;;;5.50;99.90;;;;;;5072432;28;19925;-69
2023/04/25 05:34:36;;;;;;;;;;;4.70;99.90;;;;;;5073870;28;20336;-69
2023/04/25 05:37:02;;;;;;;;;;;5.00;99.90;;;;;;5052934;28;20015;-69
2023/04/25 05:39:28;;;;;;;;;;;5.40;99.90;;;;;;5073937;28;19924;-69
2023/04/25 05:41:53;;;;;;;;;;;5.70;99.90;;;;;;5072837;28;20298;-69
2023/04/25 05:44:19;;;;;;;;;;;6.10;99.90;;;;;;5052859;28;19924;-69
2023/04/25 05:46:44;;;;;;;;;;;6.40;99.90;;;;;;5071313;28;19925;-69
2023/04/25 05:49:10;;;;;;;;;;;6.60;99.90;;;;;;5073657;28;19969;-68
2023/04/25 05:51:35;;;;;;;;;;;6.70;99.90;;;;;;5071049;28;19931;-68
2023/04/25 05:54:01;;;;;;;;;;;6.60;99.90;;;;;;5072865;28;20318;-68
2023/04/25 05:56:26;;;;;;;;;;;6.40;99.90;;;;;;5073270;28;19924;-70
2023/04/25 05:58:52;;;;;;;;;;;6.20;99.90;;;;;;5071231;28;19925;-68
2023/04/25 06:01:18;;;;;;;;;;;6.10;99.90;;;;;;5053732;28;19924;-68
2023/04/25 06:03:43;;;;;;;;;;;6.00;99.90;;;;;;5072898;28;19978;-68
2023/04/25 06:06:09;;;;;;;;;;;6.00;99.90;;;;;;5073064;28;20007;-68
2023/04/25 06:08:36;;;;;;;;;;;6.00;99.90;;;;;;5053133;28;19970;-68
2023/04/25 06:11:01;;;;;;;;;;;6.10;99.90;;;;;;5053984;28;19924;-68
2023/04/25 06:13:26;;;;;;;;;;;5.90;99.90;;;;;;5053416;28;19933;-68
2023/04/25 06:15:52;;;;;;;;;;;6.00;99.90;;;;;;5071623;28;19931;-68
2023/04/25 06:18:18;;;;;;;;;;;6.00;99.90;;;;;;5071268;28;19925;-68
2023/04/25 06:20:43;;;;;;;;;;;6.00;99.90;;;;;;5072309;28;19932;-68
2023/04/25 06:23:09;;;;;;;;;;;5.90;99.90;;;;;;5072142;28;19947;-71
2023/04/25 06:25:34;;;;;;;;;;;5.90;99.90;;;;;;5072805;28;20369;-69
2023/04/25 06:28:00;;;;;;;;;;;5.90;99.90;;;;;;5071811;28;20383;-69
2023/04/25 06:30:25;;;;;;;;;;;6.30;99.90;;;;;;5072849;28;20274;-70
2023/04/25 06:32:52;;;;;;;;;;;6.90;99.90;;;;;;5072305;28;20034;-71
2023/04/25 06:35:18;;;;;;;;;;;7.40;99.90;;;;;;5050781;28;19931;-69
2023/04/25 06:37:44;;;;;;;;;;;8.10;99.90;;;;;;5071304;28;19924;-68
2023/04/25 06:40:10;;;;;;;;;;;8.30;99.90;;;;;;5069713;28;19982;-69
2023/04/25 06:42:36;;;;;;;;;;;8.70;99.90;;;;;;5072072;28;19998;-68
2023/04/25 06:45:02;;;;;;;;;;;8.80;99.90;;;;;;5069572;28;19932;-68
2023/04/25 06:47:27;;;;;;;;;;;8.70;99.90;;;;;;5068699;28;19925;-68
2023/04/25 06:49:53;;;;;;;;;;;8.40;99.90;;;;;;5066986;28;19943;-68
2023/04/25 06:52:18;;;;;;;;;;;8.20;99.90;;;;;;5068744;28;20124;-68
2023/04/25 06:54:44;;;;;;;;;;;8.00;99.90;;;;;;5068791;28;19924;-68
2023/04/25 06:57:10;;;;;;;;;;;7.80;99.90;;;;;;5071440;28;20003;-69
2023/04/25 06:59:35;;;;;;;;;;;7.80;99.90;;;;;;5052845;28;19929;-69
2023/04/25 07:02:01;;;;;;;;;;;7.80;99.90;;;;;;5079158;28;19924;-68
2023/04/25 07:04:30;;;;;;;;;;;7.90;99.90;;;;;;5079065;28;19928;-69
2023/04/25 07:06:56;;;;;;;;;;;7.80;99.90;;;;;;5053020;28;20336;-69
2023/04/25 07:09:22;;;;;;;;;;;7.80;99.90;;;;;;5070689;28;20286;-69
2023/04/25 07:11:47;;;;;;;;;;;7.70;99.90;;;;;;5070891;28;19924;-69
2023/04/25 07:14:13;;;;;;;;;;;7.60;99.90;;;;;;5034729;28;19924;-69
2023/04/25 07:16:38;;;;;;;;;;;7.60;99.90;;;;;;5070045;28;20393;-69
2023/04/25 07:19:04;;;;;;;;;;;7.70;99.90;;;;;;5046306;28;20409;-69
2023/04/25 07:21:30;;;;;;;;;;;7.80;99.90;;;;;;5053122;28;19924;-69
2023/04/25 07:23:56;;;;;;;;;;;7.70;99.90;;;;;;5052994;28;19925;-69
2023/04/25 07:26:21;;;;;;;;;;;7.80;99.90;;;;;;5054033;28;19924;-69
2023/04/25 07:28:50;;;;;;;;;;;7.90;99.90;;;;;;5068957;28;19931;-69
2023/04/25 07:31:17;;;;;;;;;;;7.90;99.90;;;;;;5037416;28;19932;-69
2023/04/25 07:33:45;;;;;;;;;;;7.90;99.90;;;;;;5075626;28;19938;-70
2023/04/25 07:36:10;;;;;;;;;;;8.00;99.90;;;;;;5072844;28;20031;-69
2023/04/25 07:38:36;;;;;;;;;;;8.00;99.90;;;;;;5073680;28;20027;-69
2023/04/25 07:41:02;;;;;;;;;;;8.20;99.90;;;;;;5074154;28;20406;-69
2023/04/25 07:43:28;;;;;;;;;;;8.10;99.90;;;;;;5070774;28;19931;-69
2023/04/25 07:45:53;;;;;;;;;;;8.10;99.90;;;;;;5071464;28;19924;-69
2023/04/25 07:48:19;;;;;;;;;;;8.10;99.90;;;;;;5074412;28;20031;-69
2023/04/25 07:50:45;;;;;;;;;;;8.00;99.90;;;;;;5072790;28;19924;-70
2023/04/25 07:53:10;;;;;;;;;;;8.00;99.90;;;;;;5074500;28;19936;-69
2023/04/25 07:55:39;;;;;;;;;;;7.90;99.90;;;;;;5074366;28;19928;-69
2023/04/25 07:58:08;;;;;;;;;;;7.90;99.90;;;;;;5074270;28;19931;-70
2023/04/25 08:00:34;;;;;;;;;;;7.90;99.90;;;;;;5073768;28;19968;-69
2023/04/25 08:02:59;;;;;;;;;;;7.90;99.90;;;;;;5075604;28;20326;-69
2023/04/25 08:05:25;;;;;;;;;;;8.30;99.90;;;;;;5072190;28;20384;-69
2023/04/25 08:07:50;;;;;;;;;;;8.60;99.90;;;;;;5056697;28;20374;-67
2023/04/25 08:10:16;;;;;;;;;;;8.80;99.90;;;;;;5074650;28;19925;-68
2023/04/25 08:12:41;;;;;;;;;;;8.80;99.90;;;;;;5073208;28;20007;-67
2023/04/25 08:15:08;;;;;;;;;;;8.50;99.90;;;;;;5072408;28;19932;-68
2023/04/25 08:17:33;;;;;;;;;;;7.90;99.90;;;;;;5038647;28;19925;-69
2023/04/25 08:19:59;;;;;;;;;;;7.60;99.90;;;;;;5052633;28;19931;-68
2023/04/25 08:22:25;;;;;;;;;;;7.30;99.90;;;;;;5072642;28;19928;-68
2023/04/25 08:24:50;;;;;;;;;;;7.00;99.90;;;;;;5073786;28;19924;-68
2023/04/25 08:27:16;;;;;;;;;;;6.90;99.90;;;;;;5074457;28;19928;-68
2023/04/25 08:29:42;;;;;;;;;;;6.90;99.90;;;;;;5063323;28;19925;-68
2023/04/25 08:32:07;;;;;;;;;;;7.00;99.90;;;;;;5052109;28;19924;-68
2023/04/25 08:34:37;;;;;;;;;;;6.90;99.90;;;;;;5070801;28;19932;-68
2023/04/25 08:37:04;;;;;;;;;;;7.00;99.90;;;;;;5068940;28;19925;-68
2023/04/25 08:39:29;;;;;;;;;;;7.10;99.90;;;;;;5052707;28;19925;-68
2023/04/25 08:41:56;;;;;;;;;;;7.20;99.90;;;;;;5068888;28;20412;-69
2023/04/25 08:44:22;;;;;;;;;;;7.30;99.90;;;;;;5057162;28;20318;-69
2023/04/25 08:46:49;;;;;;;;;;;7.50;99.90;;;;;;5071988;28;19925;-69
2023/04/25 08:49:16;;;;;;;;;;;8.00;99.90;;;;;;5066974;28;20390;-69
2023/04/25 08:51:50;;;;;;;;;;;7.90;99.90;;;;;;5072092;28;19924;-69
2023/04/25 08:54:16;;;;;;;;;;;8.00;99.90;;;;;;5055574;28;19979;-68
2023/04/25 08:56:44;;;;;;;;;;;8.20;99.90;;;;;;5054796;28;20011;-69
2023/04/25 08:59:10;;;;;;;;;;;8.40;99.90;;;;;;5072417;28;19929;-69
2023/04/25 09:01:36;;;;;;;;;;;8.60;99.90;;;;;;5074035;28;20352;-68
2023/04/25 09:04:02;;;;;;;;;;;8.90;99.90;;;;;;5062478;28;19928;-68
2023/04/25 09:06:28;;;;;;;;;;;8.80;99.90;;;;;;5067026;28;19998;-69
2023/04/25 09:08:54;;;;;;;;;;;9.00;99.90;;;;;;5054702;28;19932;-68
2023/04/25 09:11:20;;;;;;;;;;;9.40;99.90;;;;;;5074503;28;19924;-69
2023/04/25 09:13:45;;;;;;;;;;;9.60;99.90;;;;;;5076533;28;19924;-69
2023/04/25 09:16:11;;;;;;;;;;;9.80;99.90;;;;;;5074222;28;19931;-68
2023/04/25 09:18:36;;;;;;;;;;;9.70;99.90;;;;;;5069765;28;19947;-68
2023/04/25 09:21:06;;;;;;;;;;;9.60;99.90;;;;;;5072902;28;20011;-68
2023/04/25 09:23:38;;;;;;;;;;;9.50;99.90;;;;;;5071989;28;19935;-68
2023/04/25 09:26:06;;;;;;;;;;;9.80;99.90;;;;;;5060368;28;19991;-68
2023/04/25 09:28:32;;;;;;;;;;;10.10;99.90;;;;;;5071126;28;19924;-68
2023/04/25 09:30:57;;;;;;;;;;;10.00;99.90;;;;;;5068103;28;19989;-68
2023/04/25 09:33:28;;;;;;;;;;;9.80;99.90;;;;;;5067895;28;19924;-68
2023/04/25 09:35:56;;;;;;;;;;;9.50;99.90;;;;;;5069962;28;20354;-68
2023/04/25 09:38:22;;;;;;;;;;;9.20;99.90;;;;;;5036454;28;20394;-68
2023/04/25 09:40:49;;;;;;;;;;;9.00;99.90;;;;;;5070481;28;19924;-68
2023/04/25 09:43:19;;;;;;;;;;;8.90;99.90;;;;;;5067640;28;20396;-68
2023/04/25 09:45:48;;;;;;;;;;;8.90;99.90;;;;;;5070826;28;19967;-68
2023/04/25 09:48:17;;;;;;;;;;;9.10;99.90;;;;;;5070521;28;20378;-68
2023/04/25 09:50:43;;;;;;;;;;;9.50;99.90;;;;;;5070315;28;19924;-68
2023/04/25 09:53:08;;;;;;;;;;;9.80;99.90;;;;;;5066786;28;20294;-68
2023/04/25 09:55:34;;;;;;;;;;;10.00;99.90;;;;;;5065100;28;20047;-68
2023/04/25 09:58:03;;;;;;;;;;;9.90;99.90;;;;;;5053045;28;20352;-68
2023/04/25 10:00:29;;;;;;;;;;;10.00;99.90;;;;;;5070137;28;19932;-67
2023/04/25 10:02:55;;;;;;;;;;;10.20;99.90;;;;;;5069097;28;20458;-67
2023/04/25 10:05:21;;;;;;;;;;;10.30;99.90;;;;;;5070505;28;20007;-68
2023/04/25 10:07:47;;;;;;;;;;;10.30;99.90;;;;;;5072291;28;20011;-68
2023/04/25 10:10:13;;;;;;;;;;;10.50;99.90;;;;;;5051981;28;20281;-68
2023/04/25 10:12:40;;;;;;;;;;;10.70;99.90;;;;;;5065432;28;19929;-68
2023/04/25 10:15:06;;;;;;;;;;;11.00;99.90;;;;;;5064875;28;19948;-67
2023/04/25 10:17:32;;;;;;;;;;;10.70;99.90;;;;;;5072747;28;19925;-68
2023/04/25 10:19:58;;;;;;;;;;;10.20;99.90;;;;;;5036159;28;19931;-68
2023/04/25 10:22:32;;;;;;;;;;;9.70;99.90;;;;;;5066495;28;19924;-68
2023/04/25 10:24:58;;;;;;;;;;;9.30;99.90;;;;;;5066105;28;20580;-69
2023/04/25 10:27:23;;;;;;;;;;;9.10;99.90;;;;;;5071896;28;19928;-69
2023/04/25 10:30:12;;;;;;;;;;;9.00;99.90;;;;;;5060547;28;20012;-68
2023/04/25 10:32:38;;;;;;;;;;;9.10;99.90;;;;;;5070113;28;19924;-69
2023/04/25 10:35:10;;;;;;;;;;;9.60;99.90;;;;;;5070107;28;19946;-69
2023/04/25 10:37:36;;;;;;;;;;;10.10;99.90;;;;;;5062923;28;19964;-69
2023/04/25 10:40:08;;;;;;;;;;;10.60;99.90;;;;;;5066545;28;19975;-69
2023/04/25 10:42:33;;;;;;;;;;;11.20;99.90;;;;;;5070670;28;19939;-69
2023/04/25 10:45:05;;;;;;;;;;;11.40;99.90;;;;;;5071647;28;19924;-68
2023/04/25 10:47:34;;;;;;;;;;;11.10;99.90;;;;;;5053874;28;19971;-68
2023/04/25 10:50:04;;;;;;;;;;;10.60;99.90;;;;;;5063047;28;19931;-68
2023/04/25 10:52:32;;;;;;;;;;;10.10;99.90;;;;;;5070879;28;20011;-68
2023/04/25 10:54:58;;;;;;;;;;;9.40;99.90;;;;;;5069944;28;19925;-68
2023/04/25 10:57:48;;;;;;;;;;;9.00;99.90;;;;;;5070718;28;19970;-68
2023/04/25 11:00:15;;;;;;;;;;;8.50;99.90;;;;;;5061678;28;20164;-68
2023/04/25 11:03:07;;;;;;;;;;;8.70;99.90;;;;;;5071513;28;20007;-68
2023/04/25 11:05:34;;;;;;;;;;;9.20;99.90;;;;;;5065669;28;19924;-68
2023/04/25 11:07:59;;;;;;;;;;;9.90;99.90;;;;;;5072110;28;19978;-68
2023/04/25 11:10:29;;;;;;;;;;;10.50;99.90;;;;;;5067677;28;20346;-68
2023/04/25 11:12:54;;;;;;;;;;;11.10;99.90;;;;;;5048518;28;19924;-68
2023/04/25 11:15:20;;;;;;;;;;;11.50;99.90;;;;;;5066819;28;19940;-69
2023/04/25 11:17:46;;;;;;;;;;;11.80;99.80;;;;;;5070607;28;19936;-69
2023/04/25 11:20:13;;;;;;;;;;;11.90;98.90;;;;;;5064569;28;19987;-68
2023/04/25 11:22:42;;;;;;;;;;;12.10;97.20;;;;;;5070053;28;19947;-68
2023/04/25 11:25:08;;;;;;;;;;;12.30;95.60;;;;;;5069605;28;19926;-68
2023/04/25 11:27:34;;;;;;;;;;;12.50;94.70;;;;;;5064537;28;19928;-69
2023/04/25 11:30:15;;;;;;;;;;;12.70;96.80;;;;;;5068991;28;19931;-69
2023/04/25 11:32:42;;;;;;;;;;;13.00;96.60;;;;;;5038283;28;19932;-68
2023/04/25 11:35:08;;;;;;;;;;;13.40;95.20;;;;;;5069535;28;19928;-68
2023/04/25 11:37:34;;;;;;;;;;;13.70;93.20;;;;;;5054847;28;19939;-69
2023/04/25 11:40:00;;;;;;;;;;;13.60;91.90;;;;;;5068701;28;19928;-68
2023/04/25 11:42:25;;;;;;;;;;;13.70;93.40;;;;;;5040230;28;19987;-68
2023/04/25 11:44:51;;;;;;;;;;;14.00;94.60;;;;;;5068334;28;19991;-69
2023/04/25 11:47:16;;;;;;;;;;;14.00;92.50;;;;;;5070176;28;20420;-69
2023/04/25 11:49:42;;;;;;;;;;;13.80;92.00;;;;;;5046808;28;19981;-68
2023/04/25 11:52:08;;;;;;;;;;;13.70;92.30;;;;;;5070071;28;19925;-69
2023/04/25 11:54:36;;;;;;;;;;;13.40;92.70;;;;;;5069770;28;19925;-68
2023/04/25 11:57:03;;;;;;;;;;;13.40;90.90;;;;;;5071564;28;19924;-68
2023/04/25 11:59:28;;;;;;;;;;;13.60;91.90;;;;;;5068494;28;20022;-69
2023/04/25 12:01:54;;;;;;;;;;;13.70;90.50;;;;;;5061134;28;19928;-68
2023/04/25 12:04:23;;;;;;;;;;;13.50;89.00;;;;;;5065361;28;19932;-68
2023/04/25 12:06:50;;;;;;;;;;;13.50;90.30;;;;;;5049066;28;20349;-71
2023/04/25 12:09:33;;;;;;;;;;;13.80;93.30;;;;;;5051975;28;19942;-69
2023/04/25 12:12:03;;;;;;;;;;;14.20;90.20;;;;;;5074282;28;20297;-70
2023/04/25 12:14:30;;;;;;;;;;;13.90;89.70;;;;;;5073800;28;19970;-69
2023/04/25 12:16:57;;;;;;;;;;;13.60;90.40;;;;;;5068181;28;19971;-68
2023/04/25 12:19:23;;;;;;;;;;;13.20;90.10;;;;;;5074001;28;20006;-68
2023/04/25 12:21:50;;;;;;;;;;;12.70;90.50;;;;;;5071673;28;19946;-68
2023/04/25 12:24:17;;;;;;;;;;;12.60;92.30;;;;;;5056568;28;20263;-68
2023/04/25 12:26:47;;;;;;;;;;;12.70;91.30;;;;;;5055395;28;19924;-68
2023/04/25 12:29:17;;;;;;;;;;;12.80;91.90;;;;;;5072203;28;19928;-68
2023/04/25 12:31:42;;;;;;;;;;;13.00;90.20;;;;;;5073042;28;19931;-69
2023/04/25 12:34:08;;;;;;;;;;;13.00;90.20;;;;;;5063237;28;19925;-68
2023/04/25 12:36:33;;;;;;;;;;;12.60;91.70;;;;;;5074983;28;19925;-68
2023/04/25 12:39:03;;;;;;;;;;;12.10;92.30;;;;;;5073013;28;20358;-69
2023/04/25 12:41:29;;;;;;;;;;;12.20;93.70;;;;;;5074482;28;19924;-68
2023/04/25 12:43:55;;;;;;;;;;;12.40;92.10;;;;;;5073492;28;20301;-69
2023/04/25 12:46:21;;;;;;;;;;;12.50;92.80;;;;;;5065300;28;20400;-68
2023/04/25 12:48:46;;;;;;;;;;;12.40;93.40;;;;;;5042876;28;20035;-69
2023/04/25 12:51:12;;;;;;;;;;;12.30;92.60;;;;;;5068390;28;20400;-69
2023/04/25 12:53:38;;;;;;;;;;;12.20;92.50;;;;;;5062156;28;20377;-69
2023/04/25 12:56:05;;;;;;;;;;;11.90;90.90;;;;;;5079894;28;19978;-68
2023/04/25 12:58:31;;;;;;;;;;;11.50;91.20;;;;;;5056995;28;19939;-69
2023/04/25 13:00:56;;;;;;;;;;;11.10;91.20;;;;;;5064118;28;20282;-69
2023/04/25 13:03:22;;;;;;;;;;;11.00;93.30;;;;;;5068388;28;19975;-70
2023/04/25 13:05:47;;;;;;;;;;;11.00;94.10;;;;;;5056735;28;20043;-70
2023/04/25 13:08:13;;;;;;;;;;;11.50;94.30;;;;;;5072191;28;19931;-69
2023/04/25 13:10:41;;;;;;;;;;;12.10;92.30;;;;;;5053743;28;20008;-69
2023/04/25 13:13:07;;;;;;;;;;;12.60;91.00;;;;;;5068586;28;19947;-69
2023/04/25 13:15:33;;;;;;;;;;;13.20;91.10;;;;;;5053362;28;20008;-68
2023/04/25 13:17:58;;;;;;;;;;;13.30;86.90;;;;;;5071031;28;19978;-69
2023/04/25 13:20:24;;;;;;;;;;;13.40;88.70;;;;;;5068925;28;19924;-69
2023/04/25 13:22:50;;;;;;;;;;;13.60;88.90;;;;;;5076109;28;19932;-69
2023/04/25 13:25:16;;;;;;;;;;;13.60;91.00;;;;;;5066822;28;19932;-69
2023/04/25 13:27:43;;;;;;;;;;;13.80;90.90;;;;;;5076917;28;19928;-69
2023/04/25 13:30:09;;;;;;;;;;;14.20;90.30;;;;;;5073368;28;19924;-69
2023/04/25 13:32:38;;;;;;;;;;;14.50;89.80;;;;;;5072337;28;20313;-70
2023/04/25 13:35:05;;;;;;;;;;;14.20;87.80;;;;;;5063822;28;19967;-69
2023/04/25 13:37:32;;;;;;;;;;;14.00;88.30;;;;;;5064643;28;20374;-69
2023/04/25 13:40:04;;;;;;;;;;;14.20;90.00;;;;;;5069912;28;19932;-69
2023/04/25 13:42:30;;;;;;;;;;;14.60;86.90;;;;;;5044277;28;19940;-69
2023/04/25 13:44:55;;;;;;;;;;;14.20;87.00;;;;;;5068495;28;19967;-69
2023/04/25 13:47:22;;;;;;;;;;;13.90;86.60;;;;;;5067797;28;20401;-69
2023/04/25 13:49:47;;;;;;;;;;;13.40;87.80;;;;;;5072908;28;19925;-70
2023/04/25 13:52:12;;;;;;;;;;;12.80;88.80;;;;;;5058516;28;19974;-69
2023/04/25 13:54:38;;;;;;;;;;;12.90;85.70;;;;;;5071566;28;19946;-69
2023/04/25 13:57:05;;;;;;;;;;;13.20;83.10;;;;;;5074350;28;20250;-69
2023/04/25 13:59:31;;;;;;;;;;;13.10;83.60;;;;;;5069639;28;20387;-69
2023/04/25 14:01:56;;;;;;;;;;;12.80;85.70;;;;;;5076382;28;20018;-69
2023/04/25 14:04:22;;;;;;;;;;;12.60;88.60;;;;;;5070765;28;20029;-68
2023/04/25 14:06:47;;;;;;;;;;;12.80;90.20;;;;;;5066074;28;19924;-69
2023/04/25 14:09:13;;;;;;;;;;;13.10;89.60;;;;;;5068550;28;20352;-69
2023/04/25 14:11:39;;;;;;;;;;;12.90;89.00;;;;;;5071620;28;20400;-69
2023/04/25 14:14:04;;;;;;;;;;;12.30;90.20;;;;;;5057640;28;19924;-69
2023/04/25 14:16:31;;;;;;;;;;;11.70;91.40;;;;;;5073632;28;19931;-68
2023/04/25 14:19:00;;;;;;;;;;;11.50;92.30;;;;;;5056618;28;19928;-69
2023/04/25 14:21:26;;;;;;;;;;;11.30;92.10;;;;;;5045155;28;19940;-68